sensor_id;sensor_type;location;lat;lon;timestamp;temperature;humidity
2571;DHT22;1295;51.130;6.732;2022-12-18T00:01:27;-1.80;99.90
2571;DHT22;1295;51.130;6.732;2022-12-18T00:03:52;-1.90;99.90
2571;DHT22;1295;51.130;6.732;2022-12-18T00:06:18;-1.90;99.90
2571;DHT22;1295;51.130;6.732;2022-12-18T00:08:43;-1.70;99.90
2571;DHT22;1295;51.130;6.732;2022-12-18T00:11:11;-1.70;99.90
2571;DHT22;1295;51.130;6.732;2022-12-18T00:13:34;-1.70;99.90
2571;DHT22;1295;51.130;6.732;2022-12-18T00:16:02;-1.70;99.90
2571;DHT22;1295;51.130;6.732;2022-12-18T00:18:26;-1.90;99.90
2571;DHT22;1295;51.130;6.732;2022-12-18T00:20:52;-1.80;99.90
2571;DHT22;1295;51.130;6.732;2022-12-18T00:23:18;-1.70;99.90
2571;DHT22;1295;51.130;6.732;2022-12-18T00:25:43;-1.90;99.90
2571;DHT22;1295;51.130;6.732;2022-12-18T00:28:09;-1.80;99.90
2571;DHT22;1295;51.130;6.732;2022-12-18T00:30:34;-2.00;99.90
2571;DHT22;1295;51.130;6.732;2022-12-18T00:33:00;-1.90;99.90
2571;DHT22;1295;51.130;6.732;2022-12-18T00:35:26;-2.00;99.90
2571;DHT22;1295;51.130;6.732;2022-12-18T00:37:51;-2.20;99.90
2571;DHT22;1295;51.130;6.732;2022-12-18T00:40:18;-1.80;99.90
2571;DHT22;1295;51.130;6.732;2022-12-18T00:42:43;-1.80;99.90
2571;DHT22;1295;51.130;6.732;2022-12-18T00:45:16;-1.70;99.90
2571;DHT22;1295;51.130;6.732;2022-12-18T00:47:42;-1.80;99.90
2571;DHT22;1295;51.130;6.732;2022-12-18T00:50:08;-1.80;99.90
2571;DHT22;1295;51.130;6.732;2022-12-18T00:52:34;-2.20;99.90
2571;DHT22;1295;51.130;6.732;2022-12-18T00:55:00;-2.00;99.90
2571;DHT22;1295;51.130;6.732;2022-12-18T00:57:25;-1.90;99.90
2571;DHT22;1295;51.130;6.732;2022-12-18T00:59:57;-2.00;99.90
2571;DHT22;1295;51.130;6.732;2022-12-18T01:02:22;-2.00;99.90
2571;DHT22;1295;51.130;6.732;2022-12-18T01:04:48;-1.80;99.90
2571;DHT22;1295;51.130;6.732;2022-12-18T01:07:14;-1.80;99.90
2571;DHT22;1295;51.130;6.732;2022-12-18T01:09:39;-1.90;99.90
2571;DHT22;1295;51.130;6.732;2022-12-18T01:12:06;-2.10;99.90
2571;DHT22;1295;51.130;6.732;2022-12-18T01:14:32;-2.10;99.90
2571;DHT22;1295;51.130;6.732;2022-12-18T01:16:57;-2.00;99.90
2571;DHT22;1295;51.130;6.732;2022-12-18T01:19:23;-2.00;99.90
2571;DHT22;1295;51.130;6.732;2022-12-18T01:21:48;-1.90;99.90
2571;DHT22;1295;51.130;6.732;2022-12-18T01:24:14;-1.90;99.90
2571;DHT22;1295;51.130;6.732;2022-12-18T01:26:40;-1.80;99.90
2571;DHT22;1295;51.130;6.732;2022-12-18T01:29:05;-1.90;99.90
2571;DHT22;1295;51.130;6.732;2022-12-18T01:31:32;-1.90;99.90
2571;DHT22;1295;51.130;6.732;2022-12-18T01:33:57;-1.80;99.90
2571;DHT22;1295;51.130;6.732;2022-12-18T01:36:25;-1.90;99.90
2571;DHT22;1295;51.130;6.732;2022-12-18T01:38:50;-1.90;99.90
2571;DHT22;1295;51.130;6.732;2022-12-18T01:41:16;-2.00;99.90
2571;DHT22;1295;51.130;6.732;2022-12-18T01:43:45;-2.00;99.90
2571;DHT22;1295;51.130;6.732;2022-12-18T01:46:10;-1.90;99.90
2571;DHT22;1295;51.130;6.732;2022-12-18T01:48:36;-2.00;99.90
2571;DHT22;1295;51.130;6.732;2022-12-18T01:51:01;-2.00;99.90
2571;DHT22;1295;51.130;6.732;2022-12-18T01:53:27;-2.20;99.90
2571;DHT22;1295;51.130;6.732;2022-12-18T01:55:53;-2.10;99.90
2571;DHT22;1295;51.130;6.732;2022-12-18T01:58:19;-2.10;99.90
2571;DHT22;1295;51.130;6.732;2022-12-18T02:00:45;-2.10;99.90
2571;DHT22;1295;51.130;6.732;2022-12-18T02:03:10;-2.10;99.90
2571;DHT22;1295;51.130;6.732;2022-12-18T02:05:44;-2.00;99.90
2571;DHT22;1295;51.130;6.732;2022-12-18T02:08:10;-2.30;99.90
2571;DHT22;1295;51.130;6.732;2022-12-18T02:13:22;-2.10;99.90
2571;DHT22;1295;51.130;6.732;2022-12-18T02:16:08;-2.00;99.90
2571;DHT22;1295;51.130;6.732;2022-12-18T02:18:33;-2.00;99.90
2571;DHT22;1295;51.130;6.732;2022-12-18T02:21:24;-1.90;99.90
2571;DHT22;1295;51.130;6.732;2022-12-18T02:23:57;-2.10;99.90
2571;DHT22;1295;51.130;6.732;2022-12-18T02:26:37;-2.30;99.90
2571;DHT22;1295;51.130;6.732;2022-12-18T02:29:03;-2.10;99.90
2571;DHT22;1295;51.130;6.732;2022-12-18T02:31:28;-2.00;99.90
2571;DHT22;1295;51.130;6.732;2022-12-18T02:33:54;-2.00;99.90
2571;DHT22;1295;51.130;6.732;2022-12-18T02:36:21;-2.10;99.90
2571;DHT22;1295;51.130;6.732;2022-12-18T02:38:46;-2.00;99.90
2571;DHT22;1295;51.130;6.732;2022-12-18T02:41:12;-1.90;99.90
2571;DHT22;1295;51.130;6.732;2022-12-18T02:43:54;-1.90;99.90
2571;DHT22;1295;51.130;6.732;2022-12-18T02:46:30;-2.00;99.90
2571;DHT22;1295;51.130;6.732;2022-12-18T02:48:55;-2.00;99.90
2571;DHT22;1295;51.130;6.732;2022-12-18T02:51:23;-2.00;99.90
2571;DHT22;1295;51.130;6.732;2022-12-18T02:54:09;-2.00;99.90
2571;DHT22;1295;51.130;6.732;2022-12-18T02:56:35;-2.00;99.90
2571;DHT22;1295;51.130;6.732;2022-12-18T02:59:00;-2.00;99.90
2571;DHT22;1295;51.130;6.732;2022-12-18T03:01:34;-2.00;99.90
2571;DHT22;1295;51.130;6.732;2022-12-18T03:03:59;-1.90;99.90
2571;DHT22;1295;51.130;6.732;2022-12-18T03:06:24;-2.10;99.90
2571;DHT22;1295;51.130;6.732;2022-12-18T03:08:49;-2.00;99.90
2571;DHT22;1295;51.130;6.732;2022-12-18T03:11:14;-2.20;99.90
2571;DHT22;1295;51.130;6.732;2022-12-18T03:13:46;-2.20;99.90
2571;DHT22;1295;51.130;6.732;2022-12-18T03:16:11;-2.20;99.90
2571;DHT22;1295;51.130;6.732;2022-12-18T03:18:45;-2.10;99.90
2571;DHT22;1295;51.130;6.732;2022-12-18T03:21:08;-2.20;99.90
2571;DHT22;1295;51.130;6.732;2022-12-18T03:23:37;-2.00;99.90
2571;DHT22;1295;51.130;6.732;2022-12-18T03:26:01;-1.90;99.90
2571;DHT22;1295;51.130;6.732;2022-12-18T03:28:26;-2.00;99.90
2571;DHT22;1295;51.130;6.732;2022-12-18T03:30:53;-1.90;99.90
2571;DHT22;1295;51.130;6.732;2022-12-18T03:33:19;-2.10;99.90
2571;DHT22;1295;51.130;6.732;2022-12-18T03:35:44;-2.10;99.90
2571;DHT22;1295;51.130;6.732;2022-12-18T03:38:09;-2.10;99.90
2571;DHT22;1295;51.130;6.732;2022-12-18T03:40:53;-2.10;99.90
2571;DHT22;1295;51.130;6.732;2022-12-18T03:43:20;-2.10;99.90
2571;DHT22;1295;51.130;6.732;2022-12-18T03:45:50;-2.20;99.90
2571;DHT22;1295;51.130;6.732;2022-12-18T03:48:21;-2.20;99.90
2571;DHT22;1295;51.130;6.732;2022-12-18T03:50:54;-2.10;99.90
2571;DHT22;1295;51.130;6.732;2022-12-18T03:53:22;-2.10;99.90
2571;DHT22;1295;51.130;6.732;2022-12-18T03:55:44;-2.10;99.90
2571;DHT22;1295;51.130;6.732;2022-12-18T03:58:10;-2.10;99.90
2571;DHT22;1295;51.130;6.732;2022-12-18T04:00:35;-2.00;99.90
2571;DHT22;1295;51.130;6.732;2022-12-18T04:03:01;-1.90;99.90
2571;DHT22;1295;51.130;6.732;2022-12-18T04:05:27;-2.00;99.90
2571;DHT22;1295;51.130;6.732;2022-12-18T04:07:52;-2.00;99.90
2571;DHT22;1295;51.130;6.732;2022-12-18T04:10:18;-2.20;99.90
2571;DHT22;1295;51.130;6.732;2022-12-18T04:12:43;-2.20;99.90
2571;DHT22;1295;51.130;6.732;2022-12-18T04:15:10;-2.20;99.90
2571;DHT22;1295;51.130;6.732;2022-12-18T04:17:35;-2.20;99.90
2571;DHT22;1295;51.130;6.732;2022-12-18T04:20:01;-2.10;99.90
2571;DHT22;1295;51.130;6.732;2022-12-18T04:22:26;-2.10;99.90
2571;DHT22;1295;51.130;6.732;2022-12-18T04:24:52;-2.10;99.90
2571;DHT22;1295;51.130;6.732;2022-12-18T04:27:17;-2.10;99.90
2571;DHT22;1295;51.130;6.732;2022-12-18T04:29:44;-1.90;99.90
2571;DHT22;1295;51.130;6.732;2022-12-18T04:32:10;-2.00;99.90
2571;DHT22;1295;51.130;6.732;2022-12-18T04:34:35;-2.30;99.90
2571;DHT22;1295;51.130;6.732;2022-12-18T04:37:01;-2.30;99.90
2571;DHT22;1295;51.130;6.732;2022-12-18T04:39:26;-2.20;99.90
2571;DHT22;1295;51.130;6.732;2022-12-18T04:41:52;-2.00;99.90
2571;DHT22;1295;51.130;6.732;2022-12-18T04:44:25;-2.20;99.90
2571;DHT22;1295;51.130;6.732;2022-12-18T04:46:50;-2.20;99.90
2571;DHT22;1295;51.130;6.732;2022-12-18T04:49:16;-2.10;99.90
2571;DHT22;1295;51.130;6.732;2022-12-18T04:51:41;-2.20;99.90
2571;DHT22;1295;51.130;6.732;2022-12-18T04:54:08;-2.20;99.90
2571;DHT22;1295;51.130;6.732;2022-12-18T04:56:33;-2.20;99.90
2571;DHT22;1295;51.130;6.732;2022-12-18T04:58:59;-2.10;99.90
2571;DHT22;1295;51.130;6.732;2022-12-18T05:01:25;-2.00;99.90
2571;DHT22;1295;51.130;6.732;2022-12-18T05:03:51;-2.10;99.90
2571;DHT22;1295;51.130;6.732;2022-12-18T05:06:17;-2.40;99.90
2571;DHT22;1295;51.130;6.732;2022-12-18T05:08:42;-2.40;99.90
2571;DHT22;1295;51.130;6.732;2022-12-18T05:11:09;-2.50;99.90
2571;DHT22;1295;51.130;6.732;2022-12-18T05:13:34;-2.60;99.90
2571;DHT22;1295;51.130;6.732;2022-12-18T05:15:59;-2.40;99.90
2571;DHT22;1295;51.130;6.732;2022-12-18T05:18:25;-2.20;99.90
2571;DHT22;1295;51.130;6.732;2022-12-18T05:20:51;-2.30;99.90
2571;DHT22;1295;51.130;6.732;2022-12-18T05:23:16;-2.40;99.90
2571;DHT22;1295;51.130;6.732;2022-12-18T05:25:42;-2.40;99.90
2571;DHT22;1295;51.130;6.732;2022-12-18T05:28:07;-2.20;99.90
2571;DHT22;1295;51.130;6.732;2022-12-18T05:30:33;-2.40;99.90
2571;DHT22;1295;51.130;6.732;2022-12-18T05:32:59;-2.10;99.90
2571;DHT22;1295;51.130;6.732;2022-12-18T05:35:24;-2.20;99.90
2571;DHT22;1295;51.130;6.732;2022-12-18T05:37:51;-2.50;99.90
2571;DHT22;1295;51.130;6.732;2022-12-18T05:40:16;-2.50;99.90
2571;DHT22;1295;51.130;6.732;2022-12-18T05:42:42;-2.20;99.90
2571;DHT22;1295;51.130;6.732;2022-12-18T05:45:14;-2.20;99.90
2571;DHT22;1295;51.130;6.732;2022-12-18T05:47:40;-2.00;99.90
2571;DHT22;1295;51.130;6.732;2022-12-18T05:50:07;-2.20;99.90
2571;DHT22;1295;51.130;6.732;2022-12-18T05:52:33;-2.30;99.90
2571;DHT22;1295;51.130;6.732;2022-12-18T05:54:58;-2.20;99.90
2571;DHT22;1295;51.130;6.732;2022-12-18T05:57:24;-2.10;99.90
2571;DHT22;1295;51.130;6.732;2022-12-18T05:59:50;-2.20;99.90
2571;DHT22;1295;51.130;6.732;2022-12-18T06:02:15;-2.20;99.90
2571;DHT22;1295;51.130;6.732;2022-12-18T06:04:41;-2.10;99.90
2571;DHT22;1295;51.130;6.732;2022-12-18T06:07:07;-2.30;99.90
2571;DHT22;1295;51.130;6.732;2022-12-18T06:09:32;-2.50;99.90
2571;DHT22;1295;51.130;6.732;2022-12-18T06:11:58;-2.40;99.90
2571;DHT22;1295;51.130;6.732;2022-12-18T06:14:23;-2.20;99.90
2571;DHT22;1295;51.130;6.732;2022-12-18T06:16:50;-2.20;99.90
2571;DHT22;1295;51.130;6.732;2022-12-18T06:19:15;-2.50;99.90
2571;DHT22;1295;51.130;6.732;2022-12-18T06:21:40;-2.70;99.90
2571;DHT22;1295;51.130;6.732;2022-12-18T06:24:06;-2.40;99.90
2571;DHT22;1295;51.130;6.732;2022-12-18T06:26:32;-2.30;99.90
2571;DHT22;1295;51.130;6.732;2022-12-18T06:28:57;-2.20;99.90
2571;DHT22;1295;51.130;6.732;2022-12-18T06:31:23;-2.30;99.90
2571;DHT22;1295;51.130;6.732;2022-12-18T06:33:49;-2.30;99.90
2571;DHT22;1295;51.130;6.732;2022-12-18T06:36:15;-2.30;99.90
2571;DHT22;1295;51.130;6.732;2022-12-18T06:38:41;-2.20;99.90
2571;DHT22;1295;51.130;6.732;2022-12-18T06:41:07;-2.30;99.90
2571;DHT22;1295;51.130;6.732;2022-12-18T06:43:32;-2.10;99.90
2571;DHT22;1295;51.130;6.732;2022-12-18T06:45:59;-2.30;99.90
2571;DHT22;1295;51.130;6.732;2022-12-18T06:48:25;-2.40;99.90
2571;DHT22;1295;51.130;6.732;2022-12-18T06:50:51;-2.40;99.90
2571;DHT22;1295;51.130;6.732;2022-12-18T06:53:17;-2.40;99.90
2571;DHT22;1295;51.130;6.732;2022-12-18T06:55:42;-2.50;99.90
2571;DHT22;1295;51.130;6.732;2022-12-18T06:58:08;-2.40;99.90
2571;DHT22;1295;51.130;6.732;2022-12-18T07:00:35;-2.30;99.90
2571;DHT22;1295;51.130;6.732;2022-12-18T07:03:00;-2.30;99.90
2571;DHT22;1295;51.130;6.732;2022-12-18T07:05:26;-2.30;99.90
2571;DHT22;1295;51.130;6.732;2022-12-18T07:07:57;-2.30;99.90
2571;DHT22;1295;51.130;6.732;2022-12-18T07:10:27;-2.20;99.90
2571;DHT22;1295;51.130;6.732;2022-12-18T07:12:53;-2.30;99.90
2571;DHT22;1295;51.130;6.732;2022-12-18T07:15:19;-2.20;99.90
2571;DHT22;1295;51.130;6.732;2022-12-18T07:17:44;-2.30;99.90
2571;DHT22;1295;51.130;6.732;2022-12-18T07:20:10;-2.30;99.90
2571;DHT22;1295;51.130;6.732;2022-12-18T07:22:36;-2.20;99.90
2571;DHT22;1295;51.130;6.732;2022-12-18T07:25:01;-2.40;99.90
2571;DHT22;1295;51.130;6.732;2022-12-18T07:27:27;-2.40;99.90
2571;DHT22;1295;51.130;6.732;2022-12-18T07:29:52;-2.30;99.90
2571;DHT22;1295;51.130;6.732;2022-12-18T07:32:18;-2.30;99.90
2571;DHT22;1295;51.130;6.732;2022-12-18T07:34:44;-2.10;99.90
2571;DHT22;1295;51.130;6.732;2022-12-18T07:37:09;-2.20;99.90
2571;DHT22;1295;51.130;6.732;2022-12-18T07:39:36;-2.30;99.90
2571;DHT22;1295;51.130;6.732;2022-12-18T07:42:01;-2.30;99.90
2571;DHT22;1295;51.130;6.732;2022-12-18T07:44:33;-2.20;99.90
2571;DHT22;1295;51.130;6.732;2022-12-18T07:46:59;-2.20;99.90
2571;DHT22;1295;51.130;6.732;2022-12-18T07:49:24;-2.20;99.90
2571;DHT22;1295;51.130;6.732;2022-12-18T07:51:50;-2.30;99.90
2571;DHT22;1295;51.130;6.732;2022-12-18T07:54:16;-2.10;99.90
2571;DHT22;1295;51.130;6.732;2022-12-18T07:56:42;-2.10;99.90
2571;DHT22;1295;51.130;6.732;2022-12-18T07:59:08;-2.10;99.90
2571;DHT22;1295;51.130;6.732;2022-12-18T08:01:33;-2.50;99.90
2571;DHT22;1295;51.130;6.732;2022-12-18T08:03:59;-2.30;99.90
2571;DHT22;1295;51.130;6.732;2022-12-18T08:06:25;-2.30;99.90
2571;DHT22;1295;51.130;6.732;2022-12-18T08:08:52;-2.20;99.90
2571;DHT22;1295;51.130;6.732;2022-12-18T08:11:17;-2.10;99.90
2571;DHT22;1295;51.130;6.732;2022-12-18T08:13:43;-2.30;99.90
2571;DHT22;1295;51.130;6.732;2022-12-18T08:16:08;-2.10;99.90
2571;DHT22;1295;51.130;6.732;2022-12-18T08:18:34;-2.20;99.90
2571;DHT22;1295;51.130;6.732;2022-12-18T08:21:16;-2.10;99.90
2571;DHT22;1295;51.130;6.732;2022-12-18T08:23:41;-2.50;99.90
2571;DHT22;1295;51.130;6.732;2022-12-18T08:26:06;-2.50;99.90
2571;DHT22;1295;51.130;6.732;2022-12-18T08:28:33;-2.20;99.90
2571;DHT22;1295;51.130;6.732;2022-12-18T08:30:58;-2.20;99.90
2571;DHT22;1295;51.130;6.732;2022-12-18T08:33:24;-2.40;99.90
2571;DHT22;1295;51.130;6.732;2022-12-18T08:35:50;-2.20;99.90
2571;DHT22;1295;51.130;6.732;2022-12-18T08:38:15;-2.20;99.90
2571;DHT22;1295;51.130;6.732;2022-12-18T08:40:41;-2.20;99.90
2571;DHT22;1295;51.130;6.732;2022-12-18T08:43:07;-2.20;99.90
2571;DHT22;1295;51.130;6.732;2022-12-18T08:45:38;-2.10;99.90
2571;DHT22;1295;51.130;6.732;2022-12-18T08:48:04;-2.10;99.90
2571;DHT22;1295;51.130;6.732;2022-12-18T08:50:31;-2.20;99.90
2571;DHT22;1295;51.130;6.732;2022-12-18T08:52:56;-2.20;99.90
2571;DHT22;1295;51.130;6.732;2022-12-18T08:55:22;-2.20;99.90
2571;DHT22;1295;51.130;6.732;2022-12-18T08:57:48;-2.10;99.90
2571;DHT22;1295;51.130;6.732;2022-12-18T09:00:15;-2.10;99.90
2571;DHT22;1295;51.130;6.732;2022-12-18T09:02:41;-2.00;99.90
2571;DHT22;1295;51.130;6.732;2022-12-18T09:05:07;-2.00;99.90
2571;DHT22;1295;51.130;6.732;2022-12-18T09:07:33;-2.00;99.90
2571;DHT22;1295;51.130;6.732;2022-12-18T09:09:59;-2.10;99.90
2571;DHT22;1295;51.130;6.732;2022-12-18T09:12:25;-2.10;99.90
2571;DHT22;1295;51.130;6.732;2022-12-18T09:14:50;-2.00;99.90
2571;DHT22;1295;51.130;6.732;2022-12-18T09:17:16;-2.00;99.90
2571;DHT22;1295;51.130;6.732;2022-12-18T09:19:42;-1.90;99.90
2571;DHT22;1295;51.130;6.732;2022-12-18T09:22:07;-2.00;99.90
2571;DHT22;1295;51.130;6.732;2022-12-18T09:24:33;-2.00;99.90
2571;DHT22;1295;51.130;6.732;2022-12-18T09:26:59;-2.10;99.90
2571;DHT22;1295;51.130;6.732;2022-12-18T09:29:24;-2.10;99.90
2571;DHT22;1295;51.130;6.732;2022-12-18T09:31:50;-2.00;99.90
2571;DHT22;1295;51.130;6.732;2022-12-18T09:34:15;-2.00;99.90
2571;DHT22;1295;51.130;6.732;2022-12-18T09:36:41;-1.90;99.90
2571;DHT22;1295;51.130;6.732;2022-12-18T09:39:07;-1.90;99.90
2571;DHT22;1295;51.130;6.732;2022-12-18T09:44:28;-1.80;99.90
2571;DHT22;1295;51.130;6.732;2022-12-18T09:49:28;-1.70;99.90
2571;DHT22;1295;51.130;6.732;2022-12-18T09:52:02;-1.70;99.90
2571;DHT22;1295;51.130;6.732;2022-12-18T09:54:30;-1.60;99.90
2571;DHT22;1295;51.130;6.732;2022-12-18T09:56:52;-1.60;99.90
2571;DHT22;1295;51.130;6.732;2022-12-18T09:59:29;-1.60;99.90
2571;DHT22;1295;51.130;6.732;2022-12-18T10:01:52;-1.60;99.90
2571;DHT22;1295;51.130;6.732;2022-12-18T10:04:18;-1.60;99.90
2571;DHT22;1295;51.130;6.732;2022-12-18T10:06:48;-1.60;99.90
2571;DHT22;1295;51.130;6.732;2022-12-18T10:09:16;-1.60;99.90
2571;DHT22;1295;51.130;6.732;2022-12-18T10:11:49;-1.60;99.90
2571;DHT22;1295;51.130;6.732;2022-12-18T10:14:32;-1.60;99.90
2571;DHT22;1295;51.130;6.732;2022-12-18T10:17:00;-1.50;99.90
2571;DHT22;1295;51.130;6.732;2022-12-18T10:19:38;-1.50;99.90
2571;DHT22;1295;51.130;6.732;2022-12-18T10:22:22;-1.50;99.90
2571;DHT22;1295;51.130;6.732;2022-12-18T10:24:49;-1.50;99.90
2571;DHT22;1295;51.130;6.732;2022-12-18T10:27:14;-1.50;99.90
2571;DHT22;1295;51.130;6.732;2022-12-18T10:29:37;-1.60;99.90
2571;DHT22;1295;51.130;6.732;2022-12-18T10:32:03;-1.40;99.90
2571;DHT22;1295;51.130;6.732;2022-12-18T10:34:29;-1.40;99.90
2571;DHT22;1295;51.130;6.732;2022-12-18T10:36:55;-1.40;99.90
2571;DHT22;1295;51.130;6.732;2022-12-18T10:39:22;-1.30;99.90
2571;DHT22;1295;51.130;6.732;2022-12-18T10:41:48;-1.30;99.90
2571;DHT22;1295;51.130;6.732;2022-12-18T10:44:17;-1.40;99.90
2571;DHT22;1295;51.130;6.732;2022-12-18T10:46:42;-1.40;99.90
2571;DHT22;1295;51.130;6.732;2022-12-18T10:49:18;-1.50;99.90
2571;DHT22;1295;51.130;6.732;2022-12-18T10:51:34;-1.40;99.90
2571;DHT22;1295;51.130;6.732;2022-12-18T10:54:03;-1.30;99.90
2571;DHT22;1295;51.130;6.732;2022-12-18T10:56:29;-1.30;99.90
2571;DHT22;1295;51.130;6.732;2022-12-18T10:58:57;-1.30;99.90
2571;DHT22;1295;51.130;6.732;2022-12-18T11:01:21;-1.30;99.90
2571;DHT22;1295;51.130;6.732;2022-12-18T11:04:08;-1.30;99.90
2571;DHT22;1295;51.130;6.732;2022-12-18T11:06:30;-1.30;99.90
2571;DHT22;1295;51.130;6.732;2022-12-18T11:09:00;-1.20;99.90
2571;DHT22;1295;51.130;6.732;2022-12-18T11:11:25;-1.30;99.90
2571;DHT22;1295;51.130;6.732;2022-12-18T11:14:12;-1.30;99.90
2571;DHT22;1295;51.130;6.732;2022-12-18T11:16:34;-1.20;99.90
2571;DHT22;1295;51.130;6.732;2022-12-18T11:19:09;-1.20;99.90
2571;DHT22;1295;51.130;6.732;2022-12-18T11:21:25;-1.30;99.90
2571;DHT22;1295;51.130;6.732;2022-12-18T11:23:51;-1.20;99.90
2571;DHT22;1295;51.130;6.732;2022-12-18T11:26:16;-1.10;99.90
2571;DHT22;1295;51.130;6.732;2022-12-18T11:28:49;-1.20;99.90
2571;DHT22;1295;51.130;6.732;2022-12-18T11:31:29;-1.10;99.90
2571;DHT22;1295;51.130;6.732;2022-12-18T11:34:04;-1.10;99.90
2571;DHT22;1295;51.130;6.732;2022-12-18T11:36:28;-1.20;99.90
2571;DHT22;1295;51.130;6.732;2022-12-18T11:38:53;-1.30;99.90
2571;DHT22;1295;51.130;6.732;2022-12-18T11:41:27;-1.30;99.90
2571;DHT22;1295;51.130;6.732;2022-12-18T11:43:53;-1.20;99.90
2571;DHT22;1295;51.130;6.732;2022-12-18T11:46:32;-1.10;99.90
2571;DHT22;1295;51.130;6.732;2022-12-18T11:48:58;-1.20;99.90
2571;DHT22;1295;51.130;6.732;2022-12-18T11:51:28;-1.20;99.90
2571;DHT22;1295;51.130;6.732;2022-12-18T11:53:51;-1.20;99.90
2571;DHT22;1295;51.130;6.732;2022-12-18T11:56:33;-1.30;99.90
2571;DHT22;1295;51.130;6.732;2022-12-18T11:59:23;-1.20;99.90
2571;DHT22;1295;51.130;6.732;2022-12-18T12:01:50;-1.30;99.90
2571;DHT22;1295;51.130;6.732;2022-12-18T12:04:22;-1.30;99.90
2571;DHT22;1295;51.130;6.732;2022-12-18T12:09:51;-1.20;99.90
2571;DHT22;1295;51.130;6.732;2022-12-18T12:15:13;-1.20;99.90
2571;DHT22;1295;51.130;6.732;2022-12-18T12:17:54;-1.30;99.90
2571;DHT22;1295;51.130;6.732;2022-12-18T12:20:20;-1.20;99.90
2571;DHT22;1295;51.130;6.732;2022-12-18T12:22:49;-1.30;99.90
2571;DHT22;1295;51.130;6.732;2022-12-18T12:25:26;-1.30;99.90
2571;DHT22;1295;51.130;6.732;2022-12-18T12:27:58;-1.30;99.90
2571;DHT22;1295;51.130;6.732;2022-12-18T12:30:38;-1.20;99.90
2571;DHT22;1295;51.130;6.732;2022-12-18T12:33:08;-1.30;99.90
2571;DHT22;1295;51.130;6.732;2022-12-18T12:35:42;-1.20;99.90
2571;DHT22;1295;51.130;6.732;2022-12-18T12:38:15;-1.30;99.90
2571;DHT22;1295;51.130;6.732;2022-12-18T12:40:40;-1.20;99.90
2571;DHT22;1295;51.130;6.732;2022-12-18T12:45:50;-1.20;99.90
2571;DHT22;1295;51.130;6.732;2022-12-18T12:48:20;-1.20;99.90
2571;DHT22;1295;51.130;6.732;2022-12-18T12:50:43;-1.30;99.90
2571;DHT22;1295;51.130;6.732;2022-12-18T12:53:13;-1.30;99.90
2571;DHT22;1295;51.130;6.732;2022-12-18T12:55:35;-1.20;99.90
2571;DHT22;1295;51.130;6.732;2022-12-18T12:58:16;-1.30;99.90
2571;DHT22;1295;51.130;6.732;2022-12-18T13:00:41;-1.20;99.90
2571;DHT22;1295;51.130;6.732;2022-12-18T13:03:11;-1.30;99.90
2571;DHT22;1295;51.130;6.732;2022-12-18T13:05:48;-1.20;99.90
2571;DHT22;1295;51.130;6.732;2022-12-18T13:08:23;-1.10;99.90
2571;DHT22;1295;51.130;6.732;2022-12-18T13:10:48;-1.20;99.90
2571;DHT22;1295;51.130;6.732;2022-12-18T13:13:14;-1.20;99.90
2571;DHT22;1295;51.130;6.732;2022-12-18T13:15:40;-1.20;99.90
2571;DHT22;1295;51.130;6.732;2022-12-18T13:18:15;-1.20;99.90
2571;DHT22;1295;51.130;6.732;2022-12-18T13:20:43;-1.20;99.90
2571;DHT22;1295;51.130;6.732;2022-12-18T13:23:25;-1.20;99.90
2571;DHT22;1295;51.130;6.732;2022-12-18T13:25:45;-1.20;99.90
2571;DHT22;1295;51.130;6.732;2022-12-18T13:28:13;-1.20;99.90
2571;DHT22;1295;51.130;6.732;2022-12-18T13:30:49;-1.20;99.90
2571;DHT22;1295;51.130;6.732;2022-12-18T13:33:44;-1.20;99.90
2571;DHT22;1295;51.130;6.732;2022-12-18T13:36:23;-1.20;99.90
2571;DHT22;1295;51.130;6.732;2022-12-18T13:38:43;-1.20;99.90
2571;DHT22;1295;51.130;6.732;2022-12-18T13:41:28;-1.20;99.90
2571;DHT22;1295;51.130;6.732;2022-12-18T13:43:55;-1.20;99.90
2571;DHT22;1295;51.130;6.732;2022-12-18T13:46:30;-1.20;99.90
2571;DHT22;1295;51.130;6.732;2022-12-18T13:48:58;-1.20;99.90
2571;DHT22;1295;51.130;6.732;2022-12-18T13:51:23;-1.20;99.90
2571;DHT22;1295;51.130;6.732;2022-12-18T13:53:52;-1.20;99.90
2571;DHT22;1295;51.130;6.732;2022-12-18T13:56:17;-1.20;99.90
2571;DHT22;1295;51.130;6.732;2022-12-18T13:58:44;-1.20;99.90
2571;DHT22;1295;51.130;6.732;2022-12-18T14:01:22;-1.10;99.90
2571;DHT22;1295;51.130;6.732;2022-12-18T14:03:47;-1.20;99.90
2571;DHT22;1295;51.130;6.732;2022-12-18T14:06:12;-1.20;99.90
2571;DHT22;1295;51.130;6.732;2022-12-18T14:08:39;-1.10;99.90
2571;DHT22;1295;51.130;6.732;2022-12-18T14:11:05;-1.20;99.90
2571;DHT22;1295;51.130;6.732;2022-12-18T14:13:31;-1.10;99.90
2571;DHT22;1295;51.130;6.732;2022-12-18T14:15:56;-1.10;99.90
2571;DHT22;1295;51.130;6.732;2022-12-18T14:18:53;-1.10;99.90
2571;DHT22;1295;51.130;6.732;2022-12-18T14:21:26;-1.10;99.90
2571;DHT22;1295;51.130;6.732;2022-12-18T14:24:02;-1.20;99.90
2571;DHT22;1295;51.130;6.732;2022-12-18T14:26:26;-1.10;99.90
2571;DHT22;1295;51.130;6.732;2022-12-18T14:28:52;-1.20;99.90
2571;DHT22;1295;51.130;6.732;2022-12-18T14:31:21;-1.20;99.90
2571;DHT22;1295;51.130;6.732;2022-12-18T14:33:46;-1.20;99.90
2571;DHT22;1295;51.130;6.732;2022-12-18T14:36:14;-1.20;99.90
2571;DHT22;1295;51.130;6.732;2022-12-18T14:38:39;-1.20;99.90
2571;DHT22;1295;51.130;6.732;2022-12-18T14:41:06;-1.20;99.90
2571;DHT22;1295;51.130;6.732;2022-12-18T14:43:35;-1.10;99.90
2571;DHT22;1295;51.130;6.732;2022-12-18T14:45:59;-1.10;99.90
2571;DHT22;1295;51.130;6.732;2022-12-18T14:48:33;-1.10;99.90
2571;DHT22;1295;51.130;6.732;2022-12-18T14:51:15;-1.10;99.90
2571;DHT22;1295;51.130;6.732;2022-12-18T14:53:42;-1.20;99.90
2571;DHT22;1295;51.130;6.732;2022-12-18T14:56:20;-1.20;99.90
2571;DHT22;1295;51.130;6.732;2022-12-18T14:58:47;-1.20;99.90
2571;DHT22;1295;51.130;6.732;2022-12-18T15:01:17;-1.20;99.90
2571;DHT22;1295;51.130;6.732;2022-12-18T15:03:43;-1.20;99.90
2571;DHT22;1295;51.130;6.732;2022-12-18T15:06:16;-1.10;99.90
2571;DHT22;1295;51.130;6.732;2022-12-18T15:08:41;-1.20;99.90
2571;DHT22;1295;51.130;6.732;2022-12-18T15:11:24;-1.20;99.90
2571;DHT22;1295;51.130;6.732;2022-12-18T15:13:32;-1.10;99.90
2571;DHT22;1295;51.130;6.732;2022-12-18T15:15:58;-1.20;99.90
2571;DHT22;1295;51.130;6.732;2022-12-18T15:18:27;-1.10;99.90
2571;DHT22;1295;51.130;6.732;2022-12-18T15:20:57;-1.20;99.90
2571;DHT22;1295;51.130;6.732;2022-12-18T15:23:27;-1.20;99.90
2571;DHT22;1295;51.130;6.732;2022-12-18T15:25:58;-1.20;99.90
2571;DHT22;1295;51.130;6.732;2022-12-18T15:28:24;-1.20;99.90
2571;DHT22;1295;51.130;6.732;2022-12-18T15:30:59;-1.20;99.90
2571;DHT22;1295;51.130;6.732;2022-12-18T15:33:25;-1.20;99.90
2571;DHT22;1295;51.130;6.732;2022-12-18T15:35:57;-1.20;99.90
2571;DHT22;1295;51.130;6.732;2022-12-18T15:38:24;-1.20;99.90
2571;DHT22;1295;51.130;6.732;2022-12-18T15:40:50;-1.20;99.90
2571;DHT22;1295;51.130;6.732;2022-12-18T15:43:15;-1.20;99.90
2571;DHT22;1295;51.130;6.732;2022-12-18T15:45:47;-1.20;99.90
2571;DHT22;1295;51.130;6.732;2022-12-18T15:48:20;-1.20;99.90
2571;DHT22;1295;51.130;6.732;2022-12-18T15:50:44;-1.20;99.90
2571;DHT22;1295;51.130;6.732;2022-12-18T15:53:10;-1.10;99.90
2571;DHT22;1295;51.130;6.732;2022-12-18T15:55:36;-1.20;99.90
2571;DHT22;1295;51.130;6.732;2022-12-18T15:58:09;-1.20;99.90
2571;DHT22;1295;51.130;6.732;2022-12-18T16:00:34;-1.20;99.90
2571;DHT22;1295;51.130;6.732;2022-12-18T16:03:00;-1.20;99.90
2571;DHT22;1295;51.130;6.732;2022-12-18T16:05:25;-1.10;99.90
2571;DHT22;1295;51.130;6.732;2022-12-18T16:07:51;-1.10;99.90
2571;DHT22;1295;51.130;6.732;2022-12-18T16:10:16;-1.10;99.90
2571;DHT22;1295;51.130;6.732;2022-12-18T16:12:43;-1.10;99.90
2571;DHT22;1295;51.130;6.732;2022-12-18T16:15:10;-1.10;99.90
2571;DHT22;1295;51.130;6.732;2022-12-18T16:17:34;-1.10;99.90
2571;DHT22;1295;51.130;6.732;2022-12-18T16:20:00;-1.10;99.90
2571;DHT22;1295;51.130;6.732;2022-12-18T16:22:27;-1.10;99.90